RYR2214 GCRR-LEAL
Flight info
| Callsign | RYR2214 |
|---|---|
| Flight time | 1h 59m |
| Altitude | 36000 |
| Route | KORAL UG5 SONSO DCT NIRAL UN871 OSDAM UM985 BARPA DCT XAVIR DCT PIMOS M445 ETURA T252 XEBAR M985 ASTRO |
| Aircraft | B738/M-SDE2E3FGHIRWXY/LB1 |
Departure
| Time | 2026-05-07 14:25 |
|---|---|
| Airport | César Manrique-Lanzarote Airport (GCRR) |
Arrival
| Time | 2026-05-07 16:24 |
|---|---|
| Airport | Alicante-Elche Miguel Hernández Airport (LEAL) |
| Time | Latitude | Longitude | Altitude | Speed | Heading |
|---|---|---|---|---|---|
| 2026-05-07 13:56 | 28.95088 | -13.60702 | 87 ft | 0 kts | 297° |
| 2026-05-07 14:14 | 28.95087 | -13.60698 | 86 ft | 2 kts | 297° |
| 2026-05-07 14:14 | 28.95080 | -13.60683 | 86 ft | 2 kts | 296° |
| 2026-05-07 14:14 | 28.95073 | -13.60667 | 85 ft | 2 kts | 297° |
| 2026-05-07 14:15 | 28.95066 | -13.60652 | 84 ft | 2 kts | 297° |
| 2026-05-07 14:15 | 28.95060 | -13.60637 | 83 ft | 2 kts | 277° |
| 2026-05-07 14:15 | 28.95060 | -13.60620 | 81 ft | 2 kts | 262° |
| 2026-05-07 14:15 | 28.95064 | -13.60604 | 81 ft | 2 kts | 243° |
| 2026-05-07 14:16 | 28.95072 | -13.60589 | 80 ft | 2 kts | 225° |
| 2026-05-07 14:16 | 28.95083 | -13.60579 | 80 ft | 1 kts | 217° |
| 2026-05-07 14:16 | 28.95086 | -13.60576 | 80 ft | 0 kts | 219° |
| 2026-05-07 14:18 | 28.95080 | -13.60582 | 80 ft | 4 kts | 220° |
| 2026-05-07 14:18 | 28.95017 | -13.60632 | 81 ft | 15 kts | 207° |
| 2026-05-07 14:19 | 28.94930 | -13.60680 | 78 ft | 0 kts | 166° |
| 2026-05-07 14:19 | 28.94906 | -13.60659 | 76 ft | 11 kts | 130° |
| 2026-05-07 14:19 | 28.94856 | -13.60573 | 68 ft | 14 kts | 161° |
| 2026-05-07 14:19 | 28.94754 | -13.60607 | 64 ft | 15 kts | 206° |
| 2026-05-07 14:20 | 28.94657 | -13.60665 | 62 ft | 15 kts | 207° |
| 2026-05-07 14:20 | 28.94590 | -13.60704 | 60 ft | 16 kts | 206° |
| 2026-05-07 14:20 | 28.94428 | -13.60797 | 55 ft | 23 kts | 207° |
| 2026-05-07 14:20 | 28.94269 | -13.60888 | 52 ft | 27 kts | 205° |
| 2026-05-07 14:21 | 28.94089 | -13.60992 | 49 ft | 28 kts | 206° |
| 2026-05-07 14:21 | 28.93912 | -13.61095 | 48 ft | 27 kts | 207° |
| 2026-05-07 14:21 | 28.93746 | -13.61193 | 49 ft | 21 kts | 207° |
| 2026-05-07 14:21 | 28.93656 | -13.61207 | 47 ft | 13 kts | 137° |
| 2026-05-07 14:22 | 28.93642 | -13.61185 | 46 ft | 1 kts | 118° |
| 2026-05-07 14:22 | 28.93633 | -13.61165 | 45 ft | 4 kts | 118° |
| 2026-05-07 14:22 | 28.93615 | -13.61126 | 43 ft | 7 kts | 115° |
| 2026-05-07 14:22 | 28.93614 | -13.61064 | 40 ft | 9 kts | 41° |
| 2026-05-07 14:23 | 28.93624 | -13.61058 | 40 ft | 0 kts | 26° |
| 2026-05-07 14:24 | 28.93677 | -13.61027 | 39 ft | 35 kts | 27° |
| 2026-05-07 14:24 | 28.94127 | -13.60764 | 40 ft | 107 kts | 26° |
| 2026-05-07 14:25 | 28.94995 | -13.60264 | 65 ft | 165 kts | 29° |
| 2026-05-07 14:25 | 28.96069 | -13.59609 | 479 ft | 182 kts | 30° |
| 2026-05-07 14:25 | 28.97119 | -13.58923 | 1447 ft | 172 kts | 34° |
| 2026-05-07 14:25 | 28.98072 | -13.58092 | 2008 ft | 178 kts | 36° |
| 2026-05-07 14:26 | 28.99085 | -13.57177 | 2418 ft | 192 kts | 37° |
| 2026-05-07 14:26 | 29.00159 | -13.56180 | 2823 ft | 208 kts | 37° |
| 2026-05-07 14:26 | 29.01297 | -13.55070 | 3301 ft | 222 kts | 45° |
| 2026-05-07 14:26 | 29.02304 | -13.53657 | 3712 ft | 241 kts | 51° |
| 2026-05-07 14:27 | 29.03335 | -13.52050 | 4214 ft | 256 kts | 51° |
| 2026-05-07 14:27 | 29.04437 | -13.50414 | 4756 ft | 267 kts | 50° |
| 2026-05-07 14:27 | 29.05602 | -13.48753 | 5458 ft | 272 kts | 48° |
| 2026-05-07 14:27 | 29.06816 | -13.47050 | 6151 ft | 278 kts | 48° |
| 2026-05-07 14:28 | 29.08054 | -13.45319 | 6841 ft | 284 kts | 49° |
| 2026-05-07 14:28 | 29.09304 | -13.43561 | 7498 ft | 289 kts | 47° |
| 2026-05-07 14:28 | 29.10783 | -13.42033 | 8096 ft | 292 kts | 28° |
| 2026-05-07 14:28 | 29.12602 | -13.41031 | 8798 ft | 292 kts | 19° |
| 2026-05-07 14:29 | 29.14511 | -13.40176 | 9440 ft | 297 kts | 19° |
| 2026-05-07 14:29 | 29.16439 | -13.39285 | 10067 ft | 302 kts | 20° |
| 2026-05-07 14:29 | 29.18407 | -13.38307 | 10534 ft | 314 kts | 21° |
| 2026-05-07 14:29 | 29.20437 | -13.37250 | 10891 ft | 328 kts | 22° |
| 2026-05-07 14:30 | 29.22539 | -13.36136 | 11238 ft | 342 kts | 22° |
| 2026-05-07 14:30 | 29.24738 | -13.34965 | 11514 ft | 358 kts | 23° |
| 2026-05-07 14:30 | 29.26952 | -13.33508 | 11807 ft | 374 kts | 34° |
| 2026-05-07 14:30 | 29.28877 | -13.31391 | 11984 ft | 391 kts | 49° |
| 2026-05-07 14:31 | 29.30512 | -13.28894 | 11971 ft | 389 kts | 54° |
| 2026-05-07 14:31 | 29.32004 | -13.26344 | 11971 ft | 388 kts | 56° |
| 2026-05-07 14:31 | 29.33488 | -13.23738 | 11971 ft | 389 kts | 56° |
| 2026-05-07 14:31 | 29.34976 | -13.21148 | 11972 ft | 391 kts | 56° |
| 2026-05-07 14:32 | 29.36481 | -13.18580 | 11971 ft | 389 kts | 55° |
| 2026-05-07 14:32 | 29.38008 | -13.16015 | 11971 ft | 391 kts | 54° |
| 2026-05-07 14:32 | 29.39562 | -13.13437 | 11968 ft | 389 kts | 54° |
| 2026-05-07 14:32 | 29.41097 | -13.10906 | 11971 ft | 390 kts | 54° |
| 2026-05-07 14:33 | 29.42637 | -13.08374 | 11968 ft | 389 kts | 54° |
| 2026-05-07 14:33 | 29.44196 | -13.05813 | 11969 ft | 389 kts | 54° |
| 2026-05-07 14:33 | 29.45732 | -13.03288 | 11967 ft | 389 kts | 54° |
| 2026-05-07 14:33 | 29.47299 | -13.00708 | 11969 ft | 390 kts | 54° |
| 2026-05-07 14:34 | 29.48849 | -12.98153 | 12263 ft | 400 kts | 54° |
| 2026-05-07 14:34 | 29.50428 | -12.95548 | 13032 ft | 398 kts | 54° |
| 2026-05-07 14:34 | 29.52034 | -12.92896 | 13538 ft | 404 kts | 54° |
| 2026-05-07 14:34 | 29.53629 | -12.90260 | 14067 ft | 409 kts | 54° |
| 2026-05-07 14:35 | 29.55255 | -12.87571 | 14672 ft | 411 kts | 54° |
| 2026-05-07 14:35 | 29.56890 | -12.84865 | 15153 ft | 417 kts | 54° |
| 2026-05-07 14:35 | 29.58557 | -12.82106 | 15708 ft | 420 kts | 54° |
| 2026-05-07 14:35 | 29.60224 | -12.79343 | 16172 ft | 426 kts | 54° |
| 2026-05-07 14:36 | 29.61905 | -12.76558 | 16605 ft | 431 kts | 54° |
| 2026-05-07 14:36 | 29.63624 | -12.73707 | 17166 ft | 433 kts | 54° |
| 2026-05-07 14:36 | 29.65333 | -12.70869 | 17590 ft | 439 kts | 54° |
| 2026-05-07 14:36 | 29.67084 | -12.67960 | 18057 ft | 443 kts | 54° |
| 2026-05-07 14:37 | 29.68834 | -12.65050 | 18560 ft | 446 kts | 54° |
| 2026-05-07 14:37 | 29.72398 | -12.59120 | 19552 ft | 452 kts | 54° |
| 2026-05-07 14:37 | 29.74181 | -12.56148 | 19956 ft | 458 kts | 54° |
| 2026-05-07 14:38 | 29.75976 | -12.53137 | 20532 ft | 458 kts | 54° |
| 2026-05-07 14:38 | 29.77767 | -12.50117 | 20960 ft | 462 kts | 54° |
| 2026-05-07 14:38 | 29.79584 | -12.47045 | 21395 ft | 466 kts | 54° |
| 2026-05-07 14:38 | 29.81407 | -12.43955 | 21906 ft | 467 kts | 54° |
| 2026-05-07 14:39 | 29.83226 | -12.40870 | 22299 ft | 471 kts | 54° |
| 2026-05-07 14:39 | 29.85085 | -12.37716 | 22760 ft | 473 kts | 54° |
| 2026-05-07 14:39 | 29.86914 | -12.34611 | 23176 ft | 476 kts | 54° |
| 2026-05-07 14:39 | 29.88795 | -12.31416 | 23581 ft | 479 kts | 54° |
| 2026-05-07 14:40 | 29.90665 | -12.28238 | 23943 ft | 483 kts | 54° |
| 2026-05-07 14:40 | 29.92545 | -12.25041 | 24359 ft | 485 kts | 54° |
| 2026-05-07 14:40 | 29.94420 | -12.21852 | 24778 ft | 487 kts | 54° |
| 2026-05-07 14:40 | 29.96312 | -12.18629 | 25203 ft | 488 kts | 54° |
| 2026-05-07 14:41 | 29.98217 | -12.15384 | 25538 ft | 492 kts | 54° |
| 2026-05-07 14:41 | 30.00173 | -12.12144 | 25905 ft | 494 kts | 52° |
| 2026-05-07 14:41 | 30.02299 | -12.09025 | 26247 ft | 496 kts | 47° |
| 2026-05-07 14:41 | 30.04613 | -12.06095 | 26712 ft | 494 kts | 44° |
| 2026-05-07 14:42 | 30.07032 | -12.03280 | 27009 ft | 498 kts | 41° |
| 2026-05-07 14:42 | 30.09533 | -12.00511 | 27326 ft | 500 kts | 40° |
| 2026-05-07 14:42 | 30.12058 | -11.97776 | 27755 ft | 500 kts | 40° |
| 2026-05-07 14:42 | 30.14632 | -11.94997 | 28051 ft | 503 kts | 40° |
| 2026-05-07 14:43 | 30.17160 | -11.92253 | 28478 ft | 502 kts | 40° |
| 2026-05-07 14:43 | 30.19680 | -11.89492 | 28955 ft | 500 kts | 40° |
| 2026-05-07 14:43 | 30.22202 | -11.86704 | 29431 ft | 499 kts | 41° |
| 2026-05-07 14:43 | 30.24677 | -11.83949 | 29905 ft | 497 kts | 40° |
| 2026-05-07 14:44 | 30.27143 | -11.81192 | 30367 ft | 495 kts | 41° |
| 2026-05-07 14:44 | 30.29616 | -11.78416 | 30788 ft | 494 kts | 41° |
| 2026-05-07 14:44 | 30.32054 | -11.75673 | 31166 ft | 493 kts | 40° |
| 2026-05-07 14:44 | 30.34517 | -11.72897 | 31559 ft | 492 kts | 40° |
| 2026-05-07 14:45 | 30.36960 | -11.70140 | 31896 ft | 491 kts | 41° |
| 2026-05-07 14:45 | 30.39418 | -11.67366 | 32242 ft | 491 kts | 41° |
| 2026-05-07 14:45 | 30.41897 | -11.64565 | 32564 ft | 491 kts | 40° |
| 2026-05-07 14:45 | 30.44329 | -11.61815 | 32820 ft | 492 kts | 40° |
| 2026-05-07 14:46 | 30.46801 | -11.59018 | 33142 ft | 491 kts | 41° |
| 2026-05-07 14:46 | 30.49211 | -11.56288 | 33507 ft | 489 kts | 40° |
| 2026-05-07 14:46 | 30.51637 | -11.53536 | 33836 ft | 488 kts | 40° |
| 2026-05-07 14:46 | 30.54072 | -11.50773 | 34184 ft | 486 kts | 40° |
| 2026-05-07 14:47 | 30.56482 | -11.48038 | 34544 ft | 484 kts | 40° |
| 2026-05-07 14:47 | 30.58874 | -11.45323 | 34883 ft | 482 kts | 40° |
| 2026-05-07 14:47 | 30.61239 | -11.42635 | 35192 ft | 481 kts | 40° |
| 2026-05-07 14:47 | 30.63628 | -11.39920 | 35478 ft | 480 kts | 40° |
| 2026-05-07 14:48 | 30.66024 | -11.37193 | 35734 ft | 480 kts | 40° |
| 2026-05-07 14:48 | 30.68400 | -11.34489 | 35947 ft | 479 kts | 40° |
| 2026-05-07 14:48 | 30.73154 | -11.29073 | 35954 ft | 479 kts | 40° |
| 2026-05-07 14:49 | 30.77904 | -11.23650 | 35969 ft | 478 kts | 40° |
| 2026-05-07 14:49 | 30.82650 | -11.18229 | 35965 ft | 479 kts | 40° |
| 2026-05-07 14:50 | 30.87373 | -11.12822 | 35968 ft | 479 kts | 40° |
| 2026-05-07 14:50 | 30.92117 | -11.07383 | 35960 ft | 477 kts | 40° |
| 2026-05-07 14:51 | 30.96819 | -11.01984 | 35958 ft | 478 kts | 40° |
| 2026-05-07 14:51 | 31.01560 | -10.96534 | 35948 ft | 478 kts | 40° |
| 2026-05-07 14:52 | 31.06278 | -10.91099 | 35945 ft | 477 kts | 40° |
| 2026-05-07 14:52 | 31.11003 | -10.85650 | 35946 ft | 477 kts | 40° |
| 2026-05-07 14:53 | 31.15715 | -10.80207 | 35948 ft | 476 kts | 40° |
| 2026-05-07 14:53 | 31.20400 | -10.74789 | 35949 ft | 477 kts | 40° |
| 2026-05-07 14:54 | 31.25139 | -10.69301 | 35942 ft | 479 kts | 40° |
| 2026-05-07 14:54 | 31.29850 | -10.63835 | 35940 ft | 478 kts | 40° |
| 2026-05-07 14:55 | 31.34554 | -10.58367 | 35946 ft | 478 kts | 40° |
| 2026-05-07 14:55 | 31.39286 | -10.52861 | 35941 ft | 477 kts | 40° |
| 2026-05-07 14:56 | 31.43998 | -10.47369 | 35940 ft | 477 kts | 40° |
| 2026-05-07 14:56 | 31.48692 | -10.41893 | 35935 ft | 477 kts | 40° |
| 2026-05-07 14:57 | 31.53380 | -10.36413 | 35929 ft | 477 kts | 40° |
| 2026-05-07 14:57 | 31.58054 | -10.30941 | 35934 ft | 476 kts | 41° |
| 2026-05-07 14:58 | 31.62754 | -10.25431 | 35932 ft | 477 kts | 41° |
| 2026-05-07 14:58 | 31.67410 | -10.19963 | 35932 ft | 476 kts | 41° |
| 2026-05-07 14:59 | 31.72091 | -10.14458 | 35927 ft | 476 kts | 41° |
| 2026-05-07 14:59 | 31.76760 | -10.08959 | 35926 ft | 476 kts | 41° |
| 2026-05-07 15:00 | 31.81445 | -10.03434 | 35925 ft | 476 kts | 41° |
| 2026-05-07 15:00 | 31.86112 | -9.97920 | 35928 ft | 476 kts | 41° |
| 2026-05-07 15:01 | 31.90792 | -9.92387 | 35921 ft | 477 kts | 41° |
| 2026-05-07 15:01 | 31.95424 | -9.86896 | 35914 ft | 474 kts | 41° |
| 2026-05-07 15:02 | 32.00078 | -9.81372 | 35911 ft | 475 kts | 41° |
| 2026-05-07 15:02 | 32.04740 | -9.75833 | 35907 ft | 476 kts | 41° |
| 2026-05-07 15:03 | 32.09386 | -9.70304 | 35908 ft | 476 kts | 41° |
| 2026-05-07 15:03 | 32.14061 | -9.64730 | 35908 ft | 478 kts | 41° |
| 2026-05-07 15:04 | 32.18718 | -9.59171 | 35904 ft | 477 kts | 41° |
| 2026-05-07 15:04 | 32.23384 | -9.53590 | 35907 ft | 477 kts | 41° |
| 2026-05-07 15:05 | 32.28027 | -9.48031 | 35903 ft | 477 kts | 41° |
| 2026-05-07 15:05 | 32.32697 | -9.42431 | 35908 ft | 478 kts | 41° |
| 2026-05-07 15:06 | 32.36578 | -9.37769 | 35898 ft | 478 kts | 41° |
| 2026-05-07 15:06 | 32.42040 | -9.31195 | 35905 ft | 477 kts | 41° |
| 2026-05-07 15:07 | 32.46698 | -9.25582 | 35908 ft | 479 kts | 41° |
| 2026-05-07 15:07 | 32.51335 | -9.19985 | 35913 ft | 477 kts | 41° |
| 2026-05-07 15:08 | 32.55987 | -9.14359 | 35901 ft | 477 kts | 41° |
| 2026-05-07 15:08 | 32.60634 | -9.08733 | 35904 ft | 477 kts | 41° |
| 2026-05-07 15:09 | 32.65260 | -9.03124 | 35912 ft | 478 kts | 41° |
| 2026-05-07 15:09 | 32.69928 | -8.97457 | 35907 ft | 479 kts | 41° |
| 2026-05-07 15:10 | 32.74576 | -8.91803 | 35916 ft | 478 kts | 41° |
| 2026-05-07 15:10 | 32.79212 | -8.86153 | 35913 ft | 478 kts | 41° |
| 2026-05-07 15:11 | 32.83839 | -8.80505 | 35910 ft | 478 kts | 41° |
| 2026-05-07 15:11 | 32.88475 | -8.74840 | 35908 ft | 479 kts | 41° |
| 2026-05-07 15:12 | 32.93140 | -8.69130 | 35908 ft | 479 kts | 41° |
| 2026-05-07 15:12 | 32.97758 | -8.63466 | 35897 ft | 478 kts | 41° |
| 2026-05-07 15:13 | 33.02383 | -8.57785 | 35902 ft | 477 kts | 41° |
| 2026-05-07 15:13 | 33.06986 | -8.52124 | 35891 ft | 478 kts | 41° |
| 2026-05-07 15:14 | 33.11598 | -8.46442 | 35881 ft | 477 kts | 41° |
| 2026-05-07 15:14 | 33.16200 | -8.40768 | 35884 ft | 477 kts | 40° |
| 2026-05-07 15:15 | 33.21054 | -8.35445 | 35875 ft | 472 kts | 32° |
| 2026-05-07 15:15 | 33.26479 | -8.31009 | 35880 ft | 468 kts | 27° |
| 2026-05-07 15:16 | 33.32037 | -8.26950 | 35878 ft | 468 kts | 26° |
| 2026-05-07 15:16 | 33.37606 | -8.22907 | 35876 ft | 467 kts | 26° |
| 2026-05-07 15:17 | 33.43173 | -8.18793 | 35881 ft | 467 kts | 26° |
| 2026-05-07 15:17 | 33.48665 | -8.14675 | 35878 ft | 467 kts | 26° |
| 2026-05-07 15:18 | 33.54162 | -8.10524 | 35890 ft | 468 kts | 26° |
| 2026-05-07 15:18 | 33.59677 | -8.06345 | 35885 ft | 469 kts | 27° |
| 2026-05-07 15:19 | 33.65157 | -8.02179 | 35877 ft | 467 kts | 27° |
| 2026-05-07 15:19 | 33.70661 | -7.97990 | 35888 ft | 468 kts | 27° |
| 2026-05-07 15:20 | 33.76157 | -7.93797 | 35899 ft | 467 kts | 26° |
| 2026-05-07 15:20 | 33.81629 | -7.89620 | 35901 ft | 468 kts | 26° |
| 2026-05-07 15:21 | 33.87132 | -7.85415 | 35899 ft | 469 kts | 26° |
| 2026-05-07 15:21 | 33.92593 | -7.81233 | 35897 ft | 468 kts | 26° |
| 2026-05-07 15:22 | 33.98092 | -7.77016 | 35819 ft | 465 kts | 26° |
| 2026-05-07 15:22 | 34.03582 | -7.72802 | 35910 ft | 470 kts | 26° |
| 2026-05-07 15:23 | 34.09107 | -7.68558 | 35919 ft | 472 kts | 26° |
| 2026-05-07 15:23 | 34.14612 | -7.64313 | 35919 ft | 469 kts | 26° |
| 2026-05-07 15:24 | 34.20123 | -7.60058 | 35918 ft | 470 kts | 26° |
| 2026-05-07 15:24 | 34.25631 | -7.55797 | 35915 ft | 470 kts | 26° |
| 2026-05-07 15:25 | 34.31173 | -7.51506 | 35915 ft | 471 kts | 26° |
| 2026-05-07 15:25 | 34.36661 | -7.47248 | 35917 ft | 470 kts | 26° |
| 2026-05-07 15:26 | 34.42156 | -7.42977 | 35920 ft | 469 kts | 26° |
| 2026-05-07 15:26 | 34.47667 | -7.38692 | 35920 ft | 470 kts | 26° |
| 2026-05-07 15:27 | 34.53170 | -7.34405 | 35920 ft | 469 kts | 27° |
| 2026-05-07 15:27 | 34.58653 | -7.30128 | 35921 ft | 470 kts | 27° |
| 2026-05-07 15:28 | 34.64153 | -7.25825 | 35921 ft | 470 kts | 27° |
| 2026-05-07 15:28 | 34.69622 | -7.21539 | 35919 ft | 470 kts | 27° |
| 2026-05-07 15:29 | 34.75117 | -7.17227 | 35923 ft | 469 kts | 27° |
| 2026-05-07 15:29 | 34.80652 | -7.12882 | 35926 ft | 470 kts | 26° |
| 2026-05-07 15:30 | 34.86144 | -7.08561 | 35924 ft | 468 kts | 26° |
| 2026-05-07 15:30 | 34.91581 | -7.04275 | 35928 ft | 467 kts | 26° |
| 2026-05-07 15:31 | 34.97057 | -6.99956 | 35926 ft | 470 kts | 27° |
| 2026-05-07 15:31 | 35.02501 | -6.95652 | 35925 ft | 468 kts | 27° |
| 2026-05-07 15:32 | 35.07956 | -6.91331 | 35919 ft | 468 kts | 26° |
| 2026-05-07 15:32 | 35.13417 | -6.87002 | 35918 ft | 470 kts | 26° |
| 2026-05-07 15:33 | 35.18860 | -6.82676 | 35916 ft | 467 kts | 26° |
| 2026-05-07 15:33 | 35.24304 | -6.78345 | 35912 ft | 469 kts | 26° |
| 2026-05-07 15:34 | 35.29789 | -6.73973 | 35901 ft | 468 kts | 26° |
| 2026-05-07 15:34 | 35.34851 | -6.68873 | 35900 ft | 482 kts | 44° |
| 2026-05-07 15:35 | 35.38755 | -6.62064 | 35899 ft | 490 kts | 54° |
| 2026-05-07 15:35 | 35.42157 | -6.54896 | 35897 ft | 490 kts | 56° |
| 2026-05-07 15:36 | 35.45515 | -6.47590 | 35896 ft | 490 kts | 56° |
| 2026-05-07 15:36 | 35.48976 | -6.40462 | 35899 ft | 489 kts | 54° |
| 2026-05-07 15:37 | 35.52562 | -6.33355 | 35897 ft | 488 kts | 54° |
| 2026-05-07 15:37 | 35.56151 | -6.26294 | 35898 ft | 488 kts | 54° |
| 2026-05-07 15:38 | 35.59745 | -6.19201 | 35902 ft | 488 kts | 54° |
| 2026-05-07 15:38 | 35.63294 | -6.12170 | 35906 ft | 489 kts | 53° |
| 2026-05-07 15:39 | 35.66878 | -6.05045 | 35906 ft | 488 kts | 54° |
| 2026-05-07 15:39 | 35.70429 | -5.97959 | 35906 ft | 488 kts | 54° |
| 2026-05-07 15:40 | 35.73924 | -5.90824 | 35910 ft | 490 kts | 57° |
| 2026-05-07 15:40 | 35.77063 | -5.83285 | 35908 ft | 492 kts | 60° |
| 2026-05-07 15:41 | 35.79970 | -5.75716 | 35910 ft | 492 kts | 60° |
| 2026-05-07 15:41 | 35.82887 | -5.68068 | 35906 ft | 492 kts | 60° |
| 2026-05-07 15:42 | 35.85829 | -5.60514 | 35901 ft | 491 kts | 59° |
| 2026-05-07 15:42 | 35.88871 | -5.52960 | 35904 ft | 492 kts | 59° |
| 2026-05-07 15:43 | 35.91922 | -5.45435 | 35901 ft | 490 kts | 58° |
| 2026-05-07 15:43 | 35.94978 | -5.37884 | 35899 ft | 490 kts | 58° |
| 2026-05-07 15:44 | 35.98009 | -5.30360 | 35900 ft | 488 kts | 59° |
| 2026-05-07 15:44 | 36.01047 | -5.22801 | 36193 ft | 492 kts | 59° |
| 2026-05-07 15:45 | 36.02572 | -5.19081 | 35905 ft | 490 kts | 58° |
| 2026-05-07 15:45 | 36.04139 | -5.15322 | 35901 ft | 485 kts | 58° |
| 2026-05-07 15:45 | 36.07256 | -5.07937 | 35895 ft | 489 kts | 57° |
| 2026-05-07 15:46 | 36.11951 | -4.96780 | 35895 ft | 487 kts | 57° |
| 2026-05-07 15:47 | 36.15316 | -4.89526 | 35894 ft | 483 kts | 49° |
| 2026-05-07 15:47 | 36.19493 | -4.83160 | 35891 ft | 474 kts | 40° |
| 2026-05-07 15:48 | 36.24049 | -4.77312 | 36017 ft | 472 kts | 38° |
| 2026-05-07 15:48 | 36.26392 | -4.74400 | 35714 ft | 473 kts | 38° |
| 2026-05-07 15:48 | 36.28697 | -4.71526 | 35882 ft | 473 kts | 38° |
| 2026-05-07 15:49 | 36.33319 | -4.65699 | 35876 ft | 474 kts | 39° |
| 2026-05-07 15:49 | 36.37888 | -4.59841 | 35873 ft | 474 kts | 39° |
| 2026-05-07 15:50 | 36.42446 | -4.53943 | 35873 ft | 475 kts | 39° |
| 2026-05-07 15:50 | 36.47022 | -4.47994 | 35874 ft | 476 kts | 39° |
| 2026-05-07 15:51 | 36.51588 | -4.42036 | 35876 ft | 474 kts | 39° |
| 2026-05-07 15:51 | 36.56117 | -4.36115 | 35880 ft | 474 kts | 39° |
| 2026-05-07 15:52 | 36.60690 | -4.30127 | 35883 ft | 475 kts | 39° |
| 2026-05-07 15:52 | 36.65254 | -4.24144 | 35889 ft | 476 kts | 39° |
| 2026-05-07 15:53 | 36.69812 | -4.18160 | 35886 ft | 475 kts | 39° |
| 2026-05-07 15:53 | 36.74364 | -4.12174 | 35882 ft | 479 kts | 39° |
| 2026-05-07 15:54 | 36.78903 | -4.06186 | 35884 ft | 475 kts | 39° |
| 2026-05-07 15:54 | 36.83463 | -4.00159 | 35894 ft | 474 kts | 39° |
| 2026-05-07 15:55 | 36.87978 | -3.94185 | 35910 ft | 476 kts | 39° |
| 2026-05-07 15:55 | 36.92501 | -3.88192 | 35924 ft | 477 kts | 39° |
| 2026-05-07 15:56 | 36.97035 | -3.82169 | 35943 ft | 476 kts | 39° |
| 2026-05-07 15:56 | 37.01566 | -3.76139 | 35954 ft | 476 kts | 39° |
| 2026-05-07 15:57 | 37.06101 | -3.70093 | 35951 ft | 476 kts | 39° |
| 2026-05-07 15:57 | 37.10667 | -3.63992 | 35952 ft | 476 kts | 39° |
| 2026-05-07 15:58 | 37.15208 | -3.58019 | 35965 ft | 475 kts | 38° |
| 2026-05-07 15:58 | 37.19797 | -3.52108 | 35967 ft | 475 kts | 37° |
| 2026-05-07 15:59 | 37.24421 | -3.46161 | 35977 ft | 473 kts | 37° |
| 2026-05-07 15:59 | 37.29018 | -3.40230 | 35953 ft | 474 kts | 37° |
| 2026-05-07 16:00 | 37.33581 | -3.34319 | 35947 ft | 474 kts | 38° |
| 2026-05-07 16:00 | 37.38223 | -3.28286 | 35941 ft | 476 kts | 38° |
| 2026-05-07 16:01 | 37.42810 | -3.22306 | 35941 ft | 475 kts | 38° |
| 2026-05-07 16:01 | 37.47393 | -3.16326 | 35934 ft | 475 kts | 38° |
| 2026-05-07 16:02 | 37.51971 | -3.10328 | 35929 ft | 473 kts | 38° |
| 2026-05-07 16:02 | 37.56510 | -3.04382 | 35931 ft | 474 kts | 38° |
| 2026-05-07 16:03 | 37.61062 | -2.98404 | 35930 ft | 474 kts | 38° |
| 2026-05-07 16:03 | 37.65613 | -2.92419 | 35918 ft | 472 kts | 38° |
| 2026-05-07 16:04 | 37.70179 | -2.86401 | 35922 ft | 474 kts | 38° |
| 2026-05-07 16:04 | 37.74720 | -2.80410 | 35919 ft | 472 kts | 39° |
| 2026-05-07 16:05 | 37.79272 | -2.74392 | 35920 ft | 474 kts | 38° |
| 2026-05-07 16:05 | 37.83799 | -2.68387 | 35915 ft | 472 kts | 38° |
| 2026-05-07 16:06 | 37.88344 | -2.62352 | 35919 ft | 475 kts | 39° |
| 2026-05-07 16:06 | 37.92890 | -2.56306 | 35910 ft | 472 kts | 39° |
| 2026-05-07 16:07 | 37.97388 | -2.50310 | 35927 ft | 474 kts | 39° |
| 2026-05-07 16:07 | 38.01960 | -2.44212 | 35916 ft | 476 kts | 39° |
| 2026-05-07 16:08 | 38.06497 | -2.38138 | 35648 ft | 474 kts | 39° |
| 2026-05-07 16:08 | 38.08769 | -2.35090 | 35401 ft | 473 kts | 39° |
| 2026-05-07 16:08 | 38.11006 | -2.32082 | 35158 ft | 473 kts | 40° |
| 2026-05-07 16:08 | 38.13199 | -2.28951 | 34888 ft | 472 kts | 45° |
| 2026-05-07 16:09 | 38.14948 | -2.25426 | 34098 ft | 486 kts | 62° |
| 2026-05-07 16:09 | 38.15955 | -2.21340 | 33370 ft | 486 kts | 73° |
| 2026-05-07 16:09 | 38.16570 | -2.17155 | 32656 ft | 484 kts | 77° |
| 2026-05-07 16:09 | 38.17029 | -2.12963 | 31920 ft | 480 kts | 79° |
| 2026-05-07 16:10 | 38.17435 | -2.08799 | 31185 ft | 476 kts | 80° |
| 2026-05-07 16:10 | 38.17843 | -2.04641 | 30028 ft | 483 kts | 80° |
| 2026-05-07 16:10 | 38.18284 | -2.00407 | 28788 ft | 487 kts | 79° |
| 2026-05-07 16:10 | 38.18751 | -1.96203 | 27559 ft | 490 kts | 79° |
| 2026-05-07 16:11 | 38.19254 | -1.91897 | 26285 ft | 490 kts | 80° |
| 2026-05-07 16:11 | 38.19766 | -1.87684 | 25049 ft | 489 kts | 80° |
| 2026-05-07 16:11 | 38.20296 | -1.83435 | 23776 ft | 487 kts | 80° |
| 2026-05-07 16:11 | 38.20831 | -1.79226 | 22504 ft | 483 kts | 80° |
| 2026-05-07 16:12 | 38.21362 | -1.75091 | 21237 ft | 478 kts | 80° |
| 2026-05-07 16:12 | 38.21892 | -1.70980 | 19976 ft | 473 kts | 80° |
| 2026-05-07 16:12 | 38.22417 | -1.66920 | 19079 ft | 458 kts | 81° |
| 2026-05-07 16:12 | 38.22921 | -1.63016 | 18265 ft | 444 kts | 81° |
| 2026-05-07 16:13 | 38.23410 | -1.59215 | 17399 ft | 433 kts | 81° |
| 2026-05-07 16:13 | 38.23888 | -1.55488 | 16539 ft | 422 kts | 81° |
| 2026-05-07 16:13 | 38.24308 | -1.52201 | 15763 ft | 413 kts | 81° |
| 2026-05-07 16:13 | 38.24753 | -1.48679 | 14927 ft | 403 kts | 81° |
| 2026-05-07 16:14 | 38.25188 | -1.45220 | 14099 ft | 395 kts | 81° |
| 2026-05-07 16:14 | 38.25618 | -1.41791 | 13267 ft | 387 kts | 81° |
| 2026-05-07 16:14 | 38.26033 | -1.38479 | 12450 ft | 379 kts | 81° |
| 2026-05-07 16:14 | 38.26444 | -1.35201 | 11487 ft | 377 kts | 81° |
| 2026-05-07 16:15 | 38.26850 | -1.31965 | 10474 ft | 375 kts | 82° |
| 2026-05-07 16:15 | 38.27255 | -1.28747 | 9681 ft | 366 kts | 82° |
| 2026-05-07 16:15 | 38.27644 | -1.25629 | 9261 ft | 347 kts | 82° |
| 2026-05-07 16:15 | 38.28014 | -1.22673 | 8860 ft | 330 kts | 81° |
| 2026-05-07 16:16 | 38.28363 | -1.19866 | 8480 ft | 315 kts | 82° |
| 2026-05-07 16:16 | 38.28695 | -1.17198 | 8111 ft | 301 kts | 82° |
| 2026-05-07 16:16 | 38.29015 | -1.14605 | 7762 ft | 289 kts | 81° |
| 2026-05-07 16:16 | 38.29319 | -1.12138 | 7421 ft | 278 kts | 82° |
| 2026-05-07 16:17 | 38.29609 | -1.09783 | 7095 ft | 267 kts | 82° |
| 2026-05-07 16:17 | 38.29892 | -1.07499 | 6779 ft | 257 kts | 81° |
| 2026-05-07 16:17 | 38.30169 | -1.05272 | 6499 ft | 256 kts | 81° |
| 2026-05-07 16:17 | 38.30452 | -1.02985 | 6150 ft | 266 kts | 81° |
| 2026-05-07 16:18 | 38.30736 | -1.00671 | 5973 ft | 260 kts | 81° |
| 2026-05-07 16:18 | 38.31015 | -0.98404 | 5843 ft | 264 kts | 81° |
| 2026-05-07 16:18 | 38.31298 | -0.96098 | 5612 ft | 263 kts | 81° |
| 2026-05-07 16:18 | 38.31578 | -0.93808 | 5439 ft | 261 kts | 81° |
| 2026-05-07 16:19 | 38.31860 | -0.91523 | 5147 ft | 260 kts | 79° |
| 2026-05-07 16:19 | 38.32292 | -0.89335 | 4890 ft | 248 kts | 75° |
| 2026-05-07 16:19 | 38.32534 | -0.87233 | 4681 ft | 235 kts | 92° |
| 2026-05-07 16:19 | 38.32357 | -0.85250 | 4542 ft | 222 kts | 100° |
| 2026-05-07 16:20 | 38.32060 | -0.83349 | 4217 ft | 219 kts | 100° |
| 2026-05-07 16:20 | 38.31778 | -0.81469 | 3912 ft | 214 kts | 99° |
| 2026-05-07 16:20 | 38.31527 | -0.79620 | 3620 ft | 211 kts | 98° |
| 2026-05-07 16:20 | 38.31279 | -0.77785 | 3326 ft | 209 kts | 98° |
| 2026-05-07 16:21 | 38.31028 | -0.75994 | 3064 ft | 203 kts | 98° |
| 2026-05-07 16:21 | 38.30787 | -0.74257 | 2768 ft | 198 kts | 98° |
| 2026-05-07 16:21 | 38.30555 | -0.72566 | 2502 ft | 191 kts | 98° |
| 2026-05-07 16:21 | 38.30327 | -0.70915 | 2247 ft | 186 kts | 98° |
| 2026-05-07 16:22 | 38.30107 | -0.69340 | 1997 ft | 181 kts | 98° |
| 2026-05-07 16:22 | 38.29885 | -0.67751 | 1755 ft | 182 kts | 98° |
| 2026-05-07 16:22 | 38.29671 | -0.66193 | 1530 ft | 178 kts | 98° |
| 2026-05-07 16:22 | 38.29454 | -0.64653 | 1262 ft | 171 kts | 98° |
| 2026-05-07 16:23 | 38.29259 | -0.63261 | 1097 ft | 151 kts | 98° |
| 2026-05-07 16:23 | 38.29079 | -0.61956 | 883 ft | 147 kts | 98° |
| 2026-05-07 16:23 | 38.28899 | -0.60694 | 666 ft | 142 kts | 99° |
| 2026-05-07 16:23 | 38.28722 | -0.59480 | 486 ft | 139 kts | 97° |
| 2026-05-07 16:24 | 38.28549 | -0.58239 | 326 ft | 144 kts | 98° |
| 2026-05-07 16:24 | 38.28380 | -0.56986 | 139 ft | 140 kts | 98° |
| 2026-05-07 16:24 | 38.28230 | -0.55901 | 97 ft | 97 kts | 99° |
| 2026-05-07 16:24 | 38.28145 | -0.55302 | 84 ft | 47 kts | 100° |
| 2026-05-07 16:25 | 38.28126 | -0.54975 | 72 ft | 30 kts | 76° |
| 2026-05-07 16:25 | 38.28177 | -0.54785 | 61 ft | 12 kts | 72° |
| 2026-05-07 16:25 | 38.28202 | -0.54701 | 58 ft | 4 kts | 64° |
| 2026-05-07 16:25 | 38.28218 | -0.54689 | 57 ft | 2 kts | 331° |
| 2026-05-07 16:26 | 38.28221 | -0.54692 | 57 ft | 0 kts | 308° |
| 2026-05-07 16:26 | 38.28239 | -0.54727 | 59 ft | 8 kts | 297° |
| 2026-05-07 16:26 | 38.28255 | -0.54819 | 63 ft | 12 kts | 280° |
| 2026-05-07 16:26 | 38.28267 | -0.54901 | 66 ft | 15 kts | 281° |
| 2026-05-07 16:27 | 38.28294 | -0.55094 | 76 ft | 13 kts | 280° |
| 2026-05-07 16:27 | 38.28314 | -0.55190 | 80 ft | 10 kts | 303° |
| 2026-05-07 16:27 | 38.28378 | -0.55172 | 80 ft | 13 kts | 40° |
| 2026-05-07 16:27 | 38.28440 | -0.55206 | 82 ft | 9 kts | 280° |
| 2026-05-07 16:28 | 38.28449 | -0.55264 | 85 ft | 3 kts | 285° |
| 2026-05-07 16:28 | 38.28462 | -0.55283 | 86 ft | 4 kts | 339° |
| 2026-05-07 16:28 | 38.28511 | -0.55282 | 86 ft | 7 kts | 8° |
| 2026-05-07 16:28 | 38.28525 | -0.55279 | 86 ft | 0 kts | 8° |
| 2026-05-07 16:29 | 38.28528 | -0.55278 | 86 ft | 0 kts | 8° |